sensor_id;sensor_type;location;lat;lon;timestamp;P1;durP1;ratioP1;P2;durP2;ratioP2
45388;SDS011;31127;52.078;4.370;2023-03-31T00:00:07;27.05;;;5.32;;
45388;SDS011;31127;52.078;4.370;2023-03-31T00:05:26;29.90;;;5.15;;
45388;SDS011;31127;52.078;4.370;2023-03-31T00:10:21;21.63;;;5.07;;
45388;SDS011;31127;52.078;4.370;2023-03-31T00:15:36;16.02;;;3.72;;
45388;SDS011;31127;52.078;4.370;2023-03-31T00:20:32;20.10;;;5.10;;
45388;SDS011;31127;52.078;4.370;2023-03-31T00:25:27;19.80;;;4.20;;
45388;SDS011;31127;52.078;4.370;2023-03-31T00:30:23;19.20;;;5.07;;
45388;SDS011;31127;52.078;4.370;2023-03-31T00:35:20;23.02;;;4.50;;
45388;SDS011;31127;52.078;4.370;2023-03-31T00:40:15;15.93;;;3.80;;
45388;SDS011;31127;52.078;4.370;2023-03-31T00:50:13;13.68;;;3.80;;
45388;SDS011;31127;52.078;4.370;2023-03-31T00:55:31;17.55;;;3.38;;
45388;SDS011;31127;52.078;4.370;2023-03-31T01:00:28;11.73;;;3.28;;
45388;SDS011;31127;52.078;4.370;2023-03-31T01:05:35;13.52;;;4.50;;
45388;SDS011;31127;52.078;4.370;2023-03-31T01:10:33;18.30;;;3.17;;
45388;SDS011;31127;52.078;4.370;2023-03-31T01:30:29;19.27;;;5.00;;
45388;SDS011;31127;52.078;4.370;2023-03-31T01:41:07;18.02;;;4.78;;
45388;SDS011;31127;52.078;4.370;2023-03-31T01:51:31;17.80;;;4.20;;
45388;SDS011;31127;52.078;4.370;2023-03-31T01:56:30;22.48;;;4.32;;
45388;SDS011;31127;52.078;4.370;2023-03-31T02:01:36;16.50;;;4.25;;
45388;SDS011;31127;52.078;4.370;2023-03-31T02:06:34;16.35;;;3.22;;
45388;SDS011;31127;52.078;4.370;2023-03-31T02:11:31;22.30;;;5.43;;
45388;SDS011;31127;52.078;4.370;2023-03-31T02:16:30;23.63;;;5.18;;
45388;SDS011;31127;52.078;4.370;2023-03-31T02:21:31;20.38;;;4.45;;
45388;SDS011;31127;52.078;4.370;2023-03-31T02:26:28;18.55;;;3.50;;
45388;SDS011;31127;52.078;4.370;2023-03-31T02:32:00;18.55;;;4.03;;
45388;SDS011;31127;52.078;4.370;2023-03-31T02:36:59;16.80;;;3.90;;
45388;SDS011;31127;52.078;4.370;2023-03-31T02:41:58;21.27;;;3.70;;
45388;SDS011;31127;52.078;4.370;2023-03-31T02:46:54;17.88;;;4.75;;
45388;SDS011;31127;52.078;4.370;2023-03-31T03:07:47;18.05;;;5.10;;
45388;SDS011;31127;52.078;4.370;2023-03-31T03:17:53;15.90;;;4.05;;
45388;SDS011;31127;52.078;4.370;2023-03-31T03:22:50;12.88;;;2.33;;
45388;SDS011;31127;52.078;4.370;2023-03-31T03:27:45;10.23;;;1.42;;
45388;SDS011;31127;52.078;4.370;2023-03-31T03:32:41;9.30;;;1.77;;
45388;SDS011;31127;52.078;4.370;2023-03-31T03:37:37;6.38;;;1.20;;
45388;SDS011;31127;52.078;4.370;2023-03-31T03:42:32;6.05;;;1.50;;
45388;SDS011;31127;52.078;4.370;2023-03-31T03:47:28;9.85;;;2.45;;
45388;SDS011;31127;52.078;4.370;2023-03-31T03:52:24;6.90;;;1.70;;
45388;SDS011;31127;52.078;4.370;2023-03-31T03:57:19;10.45;;;2.38;;
45388;SDS011;31127;52.078;4.370;2023-03-31T04:02:15;7.00;;;2.75;;
45388;SDS011;31127;52.078;4.370;2023-03-31T04:07:10;12.80;;;3.97;;
45388;SDS011;31127;52.078;4.370;2023-03-31T04:12:06;13.75;;;4.88;;
45388;SDS011;31127;52.078;4.370;2023-03-31T04:17:01;14.77;;;5.50;;
45388;SDS011;31127;52.078;4.370;2023-03-31T04:21:57;18.83;;;5.60;;
45388;SDS011;31127;52.078;4.370;2023-03-31T04:26:57;21.42;;;7.43;;
45388;SDS011;31127;52.078;4.370;2023-03-31T04:31:53;29.27;;;7.95;;
45388;SDS011;31127;52.078;4.370;2023-03-31T04:36:52;21.23;;;5.95;;
45388;SDS011;31127;52.078;4.370;2023-03-31T04:41:50;16.05;;;5.57;;
45388;SDS011;31127;52.078;4.370;2023-03-31T04:46:45;21.73;;;6.37;;
45388;SDS011;31127;52.078;4.370;2023-03-31T04:51:41;16.95;;;5.70;;
45388;SDS011;31127;52.078;4.370;2023-03-31T04:56:36;15.93;;;4.68;;
45388;SDS011;31127;52.078;4.370;2023-03-31T05:01:31;17.45;;;6.03;;
45388;SDS011;31127;52.078;4.370;2023-03-31T05:06:47;11.95;;;3.08;;
45388;SDS011;31127;52.078;4.370;2023-03-31T05:11:42;11.57;;;3.73;;
45388;SDS011;31127;52.078;4.370;2023-03-31T05:16:37;7.70;;;2.07;;
45388;SDS011;31127;52.078;4.370;2023-03-31T05:21:53;11.63;;;2.33;;
45388;SDS011;31127;52.078;4.370;2023-03-31T05:26:48;6.97;;;1.33;;
45388;SDS011;31127;52.078;4.370;2023-03-31T05:31:46;4.20;;;1.40;;
45388;SDS011;31127;52.078;4.370;2023-03-31T05:36:42;15.50;;;7.57;;
45388;SDS011;31127;52.078;4.370;2023-03-31T05:41:37;7.00;;;1.55;;
45388;SDS011;31127;52.078;4.370;2023-03-31T05:46:53;4.50;;;2.55;;
45388;SDS011;31127;52.078;4.370;2023-03-31T05:51:48;4.30;;;1.98;;
45388;SDS011;31127;52.078;4.370;2023-03-31T05:56:44;9.05;;;2.08;;
45388;SDS011;31127;52.078;4.370;2023-03-31T06:01:40;4.82;;;1.80;;
45388;SDS011;31127;52.078;4.370;2023-03-31T06:06:35;6.25;;;1.75;;
45388;SDS011;31127;52.078;4.370;2023-03-31T06:11:32;7.90;;;2.15;;
45388;SDS011;31127;52.078;4.370;2023-03-31T06:16:27;7.35;;;2.00;;
45388;SDS011;31127;52.078;4.370;2023-03-31T06:21:23;6.65;;;2.35;;
45388;SDS011;31127;52.078;4.370;2023-03-31T06:26:18;7.88;;;2.63;;
45388;SDS011;31127;52.078;4.370;2023-03-31T06:31:16;11.63;;;3.40;;
45388;SDS011;31127;52.078;4.370;2023-03-31T06:36:12;8.25;;;4.07;;
45388;SDS011;31127;52.078;4.370;2023-03-31T06:41:09;7.65;;;2.20;;
45388;SDS011;31127;52.078;4.370;2023-03-31T06:46:05;8.05;;;2.58;;
45388;SDS011;31127;52.078;4.370;2023-03-31T06:51:21;10.13;;;2.40;;
45388;SDS011;31127;52.078;4.370;2023-03-31T06:56:17;8.45;;;2.90;;
45388;SDS011;31127;52.078;4.370;2023-03-31T07:01:12;13.70;;;3.03;;
45388;SDS011;31127;52.078;4.370;2023-03-31T07:06:08;10.85;;;2.83;;
45388;SDS011;31127;52.078;4.370;2023-03-31T07:11:03;12.27;;;3.03;;
45388;SDS011;31127;52.078;4.370;2023-03-31T07:16:00;7.43;;;2.65;;
45388;SDS011;31127;52.078;4.370;2023-03-31T07:20:55;11.98;;;4.32;;
45388;SDS011;31127;52.078;4.370;2023-03-31T07:25:51;7.90;;;3.72;;
45388;SDS011;31127;52.078;4.370;2023-03-31T07:30:46;11.38;;;3.85;;
45388;SDS011;31127;52.078;4.370;2023-03-31T07:35:41;15.43;;;5.03;;
45388;SDS011;31127;52.078;4.370;2023-03-31T07:40:37;15.13;;;4.88;;
45388;SDS011;31127;52.078;4.370;2023-03-31T07:45:33;16.40;;;4.40;;
45388;SDS011;31127;52.078;4.370;2023-03-31T07:50:28;23.40;;;5.70;;
45388;SDS011;31127;52.078;4.370;2023-03-31T07:55:25;21.52;;;5.05;;
45388;SDS011;31127;52.078;4.370;2023-03-31T08:00:21;21.38;;;6.07;;
45388;SDS011;31127;52.078;4.370;2023-03-31T08:05:17;18.65;;;4.43;;
45388;SDS011;31127;52.078;4.370;2023-03-31T08:10:15;15.63;;;5.25;;
45388;SDS011;31127;52.078;4.370;2023-03-31T08:15:11;17.38;;;4.00;;
45388;SDS011;31127;52.078;4.370;2023-03-31T08:20:07;13.13;;;3.17;;
45388;SDS011;31127;52.078;4.370;2023-03-31T08:25:20;15.70;;;3.50;;
45388;SDS011;31127;52.078;4.370;2023-03-31T08:30:16;14.18;;;3.90;;
45388;SDS011;31127;52.078;4.370;2023-03-31T08:35:12;21.48;;;5.75;;
45388;SDS011;31127;52.078;4.370;2023-03-31T08:40:09;28.30;;;5.30;;
45388;SDS011;31127;52.078;4.370;2023-03-31T08:50:12;23.52;;;5.40;;
45388;SDS011;31127;52.078;4.370;2023-03-31T08:55:48;28.02;;;5.90;;
45388;SDS011;31127;52.078;4.370;2023-03-31T09:00:54;21.77;;;5.10;;
45388;SDS011;31127;52.078;4.370;2023-03-31T09:05:59;19.50;;;4.78;;
45388;SDS011;31127;52.078;4.370;2023-03-31T09:10:57;19.38;;;5.60;;
45388;SDS011;31127;52.078;4.370;2023-03-31T09:15:58;22.08;;;5.22;;
45388;SDS011;31127;52.078;4.370;2023-03-31T09:21:09;23.52;;;4.00;;
45388;SDS011;31127;52.078;4.370;2023-03-31T09:26:06;24.55;;;3.95;;
45388;SDS011;31127;52.078;4.370;2023-03-31T09:31:12;32.10;;;4.40;;
45388;SDS011;31127;52.078;4.370;2023-03-31T09:36:28;22.50;;;5.07;;
45388;SDS011;31127;52.078;4.370;2023-03-31T09:41:23;28.23;;;5.53;;
45388;SDS011;31127;52.078;4.370;2023-03-31T09:46:28;25.70;;;4.95;;
45388;SDS011;31127;52.078;4.370;2023-03-31T09:51:28;24.85;;;5.68;;
45388;SDS011;31127;52.078;4.370;2023-03-31T09:56:45;22.45;;;5.45;;
45388;SDS011;31127;52.078;4.370;2023-03-31T10:01:43;27.25;;;5.30;;
45388;SDS011;31127;52.078;4.370;2023-03-31T10:06:39;23.17;;;5.25;;
45388;SDS011;31127;52.078;4.370;2023-03-31T10:12:03;20.45;;;5.03;;
45388;SDS011;31127;52.078;4.370;2023-03-31T10:17:02;20.45;;;5.55;;
45388;SDS011;31127;52.078;4.370;2023-03-31T10:21:59;17.90;;;3.03;;
45388;SDS011;31127;52.078;4.370;2023-03-31T10:26:56;16.80;;;4.03;;
45388;SDS011;31127;52.078;4.370;2023-03-31T10:31:51;19.75;;;3.78;;
45388;SDS011;31127;52.078;4.370;2023-03-31T10:36:47;20.67;;;4.05;;
45388;SDS011;31127;52.078;4.370;2023-03-31T10:41:50;16.10;;;4.80;;
45388;SDS011;31127;52.078;4.370;2023-03-31T10:46:48;16.30;;;3.27;;
45388;SDS011;31127;52.078;4.370;2023-03-31T10:51:57;11.13;;;2.30;;
45388;SDS011;31127;52.078;4.370;2023-03-31T10:57:12;15.15;;;2.88;;
45388;SDS011;31127;52.078;4.370;2023-03-31T11:07:45;21.90;;;3.65;;
45388;SDS011;31127;52.078;4.370;2023-03-31T11:33:02;12.85;;;2.95;;
45388;SDS011;31127;52.078;4.370;2023-03-31T11:38:12;10.48;;;2.83;;
45388;SDS011;31127;52.078;4.370;2023-03-31T11:43:45;9.15;;;2.47;;
45388;SDS011;31127;52.078;4.370;2023-03-31T11:48:59;8.30;;;2.53;;
45388;SDS011;31127;52.078;4.370;2023-03-31T11:53:57;7.53;;;1.90;;
45388;SDS011;31127;52.078;4.370;2023-03-31T11:58:53;9.90;;;1.85;;
45388;SDS011;31127;52.078;4.370;2023-03-31T12:03:56;6.88;;;2.00;;
45388;SDS011;31127;52.078;4.370;2023-03-31T12:13:51;8.07;;;1.58;;
45388;SDS011;31127;52.078;4.370;2023-03-31T12:23:47;11.00;;;3.53;;
45388;SDS011;31127;52.078;4.370;2023-03-31T12:28:42;12.40;;;2.83;;
45388;SDS011;31127;52.078;4.370;2023-03-31T12:33:39;15.45;;;4.03;;
45388;SDS011;31127;52.078;4.370;2023-03-31T12:49:34;5.60;;;1.77;;
45388;SDS011;31127;52.078;4.370;2023-03-31T12:54:54;9.23;;;2.70;;
45388;SDS011;31127;52.078;4.370;2023-03-31T13:10:25;13.23;;;3.58;;
45388;SDS011;31127;52.078;4.370;2023-03-31T13:15:22;10.50;;;2.13;;
45388;SDS011;31127;52.078;4.370;2023-03-31T13:20:31;8.65;;;2.00;;
45388;SDS011;31127;52.078;4.370;2023-03-31T13:30:44;4.00;;;1.70;;
45388;SDS011;31127;52.078;4.370;2023-03-31T13:35:40;9.07;;;2.38;;
45388;SDS011;31127;52.078;4.370;2023-03-31T13:40:45;7.93;;;2.80;;
45388;SDS011;31127;52.078;4.370;2023-03-31T13:45:53;7.68;;;2.33;;
45388;SDS011;31127;52.078;4.370;2023-03-31T13:50:56;7.32;;;2.50;;
45388;SDS011;31127;52.078;4.370;2023-03-31T14:11:14;9.32;;;2.80;;
45388;SDS011;31127;52.078;4.370;2023-03-31T14:16:17;8.45;;;3.72;;
45388;SDS011;31127;52.078;4.370;2023-03-31T14:21:19;10.98;;;3.03;;
45388;SDS011;31127;52.078;4.370;2023-03-31T14:36:16;10.07;;;2.72;;
45388;SDS011;31127;52.078;4.370;2023-03-31T14:41:17;7.67;;;2.37;;
45388;SDS011;31127;52.078;4.370;2023-03-31T14:46:17;12.52;;;3.30;;
45388;SDS011;31127;52.078;4.370;2023-03-31T14:51:14;9.82;;;3.80;;
45388;SDS011;31127;52.078;4.370;2023-03-31T14:56:11;8.00;;;3.15;;
45388;SDS011;31127;52.078;4.370;2023-03-31T15:01:07;8.75;;;4.63;;
45388;SDS011;31127;52.078;4.370;2023-03-31T15:06:03;15.40;;;4.05;;
45388;SDS011;31127;52.078;4.370;2023-03-31T15:11:00;17.00;;;4.25;;
45388;SDS011;31127;52.078;4.370;2023-03-31T15:15:59;9.98;;;4.00;;
45388;SDS011;31127;52.078;4.370;2023-03-31T15:20:54;12.65;;;4.32;;
45388;SDS011;31127;52.078;4.370;2023-03-31T15:25:52;14.13;;;4.28;;
45388;SDS011;31127;52.078;4.370;2023-03-31T15:30:48;13.98;;;4.20;;
45388;SDS011;31127;52.078;4.370;2023-03-31T15:35:45;17.95;;;3.55;;
45388;SDS011;31127;52.078;4.370;2023-03-31T15:40:41;11.75;;;4.20;;
45388;SDS011;31127;52.078;4.370;2023-03-31T15:56:07;9.30;;;4.53;;
45388;SDS011;31127;52.078;4.370;2023-03-31T16:01:18;9.50;;;5.10;;
45388;SDS011;31127;52.078;4.370;2023-03-31T16:16:36;5.65;;;2.58;;
45388;SDS011;31127;52.078;4.370;2023-03-31T16:21:34;6.55;;;3.17;;
45388;SDS011;31127;52.078;4.370;2023-03-31T16:26:30;9.18;;;3.47;;
45388;SDS011;31127;52.078;4.370;2023-03-31T16:31:31;15.43;;;7.05;;
45388;SDS011;31127;52.078;4.370;2023-03-31T16:36:29;8.68;;;4.63;;
45388;SDS011;31127;52.078;4.370;2023-03-31T16:41:28;10.90;;;4.43;;
45388;SDS011;31127;52.078;4.370;2023-03-31T16:46:24;12.20;;;4.03;;
45388;SDS011;31127;52.078;4.370;2023-03-31T16:51:19;9.98;;;4.13;;
45388;SDS011;31127;52.078;4.370;2023-03-31T16:56:15;8.38;;;3.58;;
45388;SDS011;31127;52.078;4.370;2023-03-31T17:01:10;8.32;;;3.10;;
45388;SDS011;31127;52.078;4.370;2023-03-31T17:06:08;10.90;;;2.08;;
45388;SDS011;31127;52.078;4.370;2023-03-31T17:11:05;23.40;;;4.10;;
45388;SDS011;31127;52.078;4.370;2023-03-31T17:16:01;23.05;;;4.00;;
45388;SDS011;31127;52.078;4.370;2023-03-31T17:21:04;30.63;;;5.53;;
45388;SDS011;31127;52.078;4.370;2023-03-31T17:26:01;40.25;;;7.75;;
45388;SDS011;31127;52.078;4.370;2023-03-31T17:30:58;34.13;;;6.70;;
45388;SDS011;31127;52.078;4.370;2023-03-31T17:35:54;31.55;;;7.75;;
45388;SDS011;31127;52.078;4.370;2023-03-31T17:40:49;41.78;;;7.30;;
45388;SDS011;31127;52.078;4.370;2023-03-31T17:45:45;42.95;;;6.78;;
45388;SDS011;31127;52.078;4.370;2023-03-31T17:50:41;38.28;;;6.20;;
45388;SDS011;31127;52.078;4.370;2023-03-31T17:55:37;41.00;;;7.60;;
45388;SDS011;31127;52.078;4.370;2023-03-31T18:00:32;37.15;;;7.03;;
45388;SDS011;31127;52.078;4.370;2023-03-31T18:05:28;44.65;;;7.70;;
45388;SDS011;31127;52.078;4.370;2023-03-31T18:10:24;51.50;;;9.10;;
45388;SDS011;31127;52.078;4.370;2023-03-31T18:15:19;39.42;;;7.47;;
45388;SDS011;31127;52.078;4.370;2023-03-31T18:20:16;37.47;;;6.32;;
45388;SDS011;31127;52.078;4.370;2023-03-31T18:25:12;44.25;;;6.95;;
45388;SDS011;31127;52.078;4.370;2023-03-31T18:30:07;29.53;;;5.00;;
45388;SDS011;31127;52.078;4.370;2023-03-31T18:35:04;36.10;;;6.57;;
45388;SDS011;31127;52.078;4.370;2023-03-31T18:40:00;45.95;;;7.45;;
45388;SDS011;31127;52.078;4.370;2023-03-31T18:44:56;45.35;;;7.15;;
45388;SDS011;31127;52.078;4.370;2023-03-31T18:49:51;34.80;;;5.55;;
45388;SDS011;31127;52.078;4.370;2023-03-31T18:54:49;59.10;;;8.18;;
45388;SDS011;31127;52.078;4.370;2023-03-31T18:59:45;70.43;;;10.27;;
45388;SDS011;31127;52.078;4.370;2023-03-31T19:04:41;57.58;;;9.23;;
45388;SDS011;31127;52.078;4.370;2023-03-31T19:09:36;68.27;;;12.83;;
45388;SDS011;31127;52.078;4.370;2023-03-31T19:14:32;47.85;;;8.10;;
45388;SDS011;31127;52.078;4.370;2023-03-31T19:19:30;42.58;;;7.20;;
45388;SDS011;31127;52.078;4.370;2023-03-31T19:24:26;50.00;;;7.28;;
45388;SDS011;31127;52.078;4.370;2023-03-31T19:29:22;51.00;;;13.90;;
45388;SDS011;31127;52.078;4.370;2023-03-31T19:34:18;30.70;;;6.20;;
45388;SDS011;31127;52.078;4.370;2023-03-31T19:39:13;49.57;;;7.63;;
45388;SDS011;31127;52.078;4.370;2023-03-31T19:44:09;52.08;;;10.13;;
45388;SDS011;31127;52.078;4.370;2023-03-31T19:49:04;39.83;;;7.57;;
45388;SDS011;31127;52.078;4.370;2023-03-31T19:53:59;56.33;;;10.40;;
45388;SDS011;31127;52.078;4.370;2023-03-31T19:58:55;61.97;;;11.32;;
45388;SDS011;31127;52.078;4.370;2023-03-31T20:03:51;61.30;;;10.82;;
45388;SDS011;31127;52.078;4.370;2023-03-31T20:08:50;58.72;;;11.63;;
45388;SDS011;31127;52.078;4.370;2023-03-31T20:14:05;63.95;;;9.20;;
45388;SDS011;31127;52.078;4.370;2023-03-31T20:19:03;48.78;;;7.47;;
45388;SDS011;31127;52.078;4.370;2023-03-31T20:23:59;54.65;;;9.00;;
45388;SDS011;31127;52.078;4.370;2023-03-31T20:28:56;41.85;;;7.85;;
45388;SDS011;31127;52.078;4.370;2023-03-31T20:33:52;45.63;;;7.53;;
45388;SDS011;31127;52.078;4.370;2023-03-31T20:38:48;53.75;;;8.40;;
45388;SDS011;31127;52.078;4.370;2023-03-31T20:43:48;52.28;;;8.57;;
45388;SDS011;31127;52.078;4.370;2023-03-31T20:49:03;45.92;;;8.27;;
45388;SDS011;31127;52.078;4.370;2023-03-31T20:54:19;51.95;;;8.32;;
45388;SDS011;31127;52.078;4.370;2023-03-31T20:59:14;45.70;;;9.05;;
45388;SDS011;31127;52.078;4.370;2023-03-31T21:04:10;46.20;;;8.88;;
45388;SDS011;31127;52.078;4.370;2023-03-31T21:09:19;43.63;;;9.57;;
45388;SDS011;31127;52.078;4.370;2023-03-31T21:14:15;47.28;;;8.70;;
45388;SDS011;31127;52.078;4.370;2023-03-31T21:19:30;30.38;;;6.32;;
45388;SDS011;31127;52.078;4.370;2023-03-31T21:24:26;51.13;;;8.63;;
45388;SDS011;31127;52.078;4.370;2023-03-31T21:29:21;45.75;;;8.13;;
45388;SDS011;31127;52.078;4.370;2023-03-31T21:34:17;95.88;;;10.48;;
45388;SDS011;31127;52.078;4.370;2023-03-31T21:39:12;36.33;;;7.18;;
45388;SDS011;31127;52.078;4.370;2023-03-31T21:44:08;67.28;;;10.15;;
45388;SDS011;31127;52.078;4.370;2023-03-31T21:49:04;77.97;;;12.27;;
45388;SDS011;31127;52.078;4.370;2023-03-31T21:54:00;83.63;;;14.65;;
45388;SDS011;31127;52.078;4.370;2023-03-31T21:59:15;89.85;;;16.08;;
45388;SDS011;31127;52.078;4.370;2023-03-31T22:04:11;80.55;;;15.55;;
45388;SDS011;31127;52.078;4.370;2023-03-31T22:09:07;109.28;;;17.83;;
45388;SDS011;31127;52.078;4.370;2023-03-31T22:14:03;80.57;;;15.73;;
45388;SDS011;31127;52.078;4.370;2023-03-31T22:18:58;98.13;;;18.40;;
45388;SDS011;31127;52.078;4.370;2023-03-31T22:24:08;98.78;;;18.10;;
45388;SDS011;31127;52.078;4.370;2023-03-31T22:29:04;101.22;;;17.50;;
45388;SDS011;31127;52.078;4.370;2023-03-31T22:34:00;106.57;;;20.35;;
45388;SDS011;31127;52.078;4.370;2023-03-31T22:38:56;97.85;;;19.08;;
45388;SDS011;31127;52.078;4.370;2023-03-31T22:43:52;92.35;;;17.83;;
45388;SDS011;31127;52.078;4.370;2023-03-31T22:48:48;114.93;;;17.27;;
45388;SDS011;31127;52.078;4.370;2023-03-31T22:53:47;116.30;;;20.25;;
45388;SDS011;31127;52.078;4.370;2023-03-31T22:58:43;137.07;;;20.48;;
45388;SDS011;31127;52.078;4.370;2023-03-31T23:03:58;126.88;;;20.35;;
45388;SDS011;31127;52.078;4.370;2023-03-31T23:08:55;129.38;;;18.90;;
45388;SDS011;31127;52.078;4.370;2023-03-31T23:13:51;127.07;;;22.20;;
45388;SDS011;31127;52.078;4.370;2023-03-31T23:18:47;100.78;;;19.10;;
45388;SDS011;31127;52.078;4.370;2023-03-31T23:23:42;142.27;;;19.77;;
45388;SDS011;31127;52.078;4.370;2023-03-31T23:28:38;140.60;;;21.08;;
45388;SDS011;31127;52.078;4.370;2023-03-31T23:33:33;159.68;;;22.48;;
45388;SDS011;31127;52.078;4.370;2023-03-31T23:38:50;157.82;;;27.45;;
45388;SDS011;31127;52.078;4.370;2023-03-31T23:43:45;305.80;;;30.98;;
45388;SDS011;31127;52.078;4.370;2023-03-31T23:48:41;170.90;;;21.80;;
45388;SDS011;31127;52.078;4.370;2023-03-31T23:53:36;183.97;;;21.93;;
45388;SDS011;31127;52.078;4.370;2023-03-31T23:58:32;146.02;;;23.52;;
